createdAt,value
2023-02-04T00:00:15.043Z,76.58
2023-02-04T00:02:41.949Z,76.25
2023-02-04T00:05:09.173Z,76.54
2023-02-04T00:07:35.646Z,77.43
2023-02-04T00:10:02.720Z,77.60
2023-02-04T00:12:29.498Z,77.93
2023-02-04T00:14:55.929Z,77.65
2023-02-04T00:17:22.514Z,76.42
2023-02-04T00:19:48.965Z,77.12
2023-02-04T00:22:15.450Z,77.47
2023-02-04T00:24:43.130Z,77.08
2023-02-04T00:27:09.592Z,76.28
2023-02-04T00:29:36.124Z,78.49
2023-02-04T00:32:02.678Z,79.05
2023-02-04T00:34:29.169Z,81.29
2023-02-04T00:36:55.630Z,82.34
2023-02-04T00:39:22.267Z,81.87
2023-02-04T00:41:48.712Z,82.80
2023-02-04T00:44:15.181Z,85.24
2023-02-04T00:46:42.575Z,85.23
2023-02-04T00:49:10.679Z,86.35
2023-02-04T00:51:38.584Z,85.95
2023-02-04T00:54:05.260Z,86.24
2023-02-04T00:56:32.070Z,85.67
2023-02-04T00:58:58.648Z,85.66
2023-02-04T01:01:25.220Z,89.47
2023-02-04T01:03:51.703Z,89.65
2023-02-04T01:06:18.143Z,89.11
2023-02-04T01:08:44.603Z,88.72
2023-02-04T01:11:11.058Z,88.11
2023-02-04T01:13:37.498Z,88.21
2023-02-04T01:16:04.049Z,89.36
2023-02-04T01:18:30.546Z,86.78
2023-02-04T01:20:57.100Z,85.69
2023-02-04T01:23:23.565Z,81.48
2023-02-04T01:25:50.036Z,78.81
2023-02-04T01:28:16.496Z,77.69
2023-02-04T01:30:43.029Z,76.27
2023-02-04T01:33:09.510Z,75.57
2023-02-04T01:35:36.189Z,73.84
2023-02-04T01:38:02.671Z,74.10
2023-02-04T01:40:29.711Z,73.67
2023-02-04T01:42:56.509Z,72.86
2023-02-04T01:45:23.930Z,73.63
2023-02-04T01:47:50.587Z,73.83
2023-02-04T01:50:17.479Z,73.79
2023-02-04T01:52:45.032Z,75.18
2023-02-04T01:55:15.825Z,72.17
2023-02-04T01:57:43.904Z,72.79
2023-02-04T02:00:12.945Z,74.64
2023-02-04T02:02:50.523Z,73.86
2023-02-04T02:05:23.197Z,73.14
2023-02-04T02:07:51.792Z,72.53
2023-02-04T02:10:18.872Z,74.60
2023-02-04T02:12:45.888Z,73.11
2023-02-04T02:15:13.142Z,74.25
2023-02-04T02:17:40.028Z,75.07
2023-02-04T02:20:07.160Z,75.02
2023-02-04T02:22:36.764Z,73.25
2023-02-04T02:25:07.844Z,72.90
2023-02-04T02:27:34.279Z,72.12
2023-02-04T02:30:00.734Z,71.96
2023-02-04T02:32:27.187Z,70.96
2023-02-04T02:34:53.710Z,71.06
2023-02-04T02:37:20.199Z,70.11
2023-02-04T02:39:46.720Z,71.45
2023-02-04T02:42:15.251Z,71.51
2023-02-04T02:44:42.091Z,68.84
2023-02-04T02:47:13.472Z,69.23
2023-02-04T02:49:41.082Z,69.08
2023-02-04T02:52:09.967Z,74.62
2023-02-04T02:54:36.532Z,68.16
2023-02-04T02:57:10.439Z,71.95
2023-02-04T02:59:37.335Z,70.99
2023-02-04T03:02:05.270Z,71.95
2023-02-04T03:04:35.973Z,69.36
2023-02-04T03:07:03.952Z,68.07
2023-02-04T03:09:30.539Z,69.27
2023-02-04T03:11:56.971Z,70.02
2023-02-04T03:14:25.284Z,67.94
2023-02-04T03:16:53.094Z,67.93
2023-02-04T03:19:20.462Z,68.75
2023-02-04T03:21:47.016Z,68.61
2023-02-04T03:24:13.641Z,69.90
2023-02-04T03:26:40.715Z,69.28
2023-02-04T03:29:09.218Z,69.72
2023-02-04T03:31:35.964Z,68.60
2023-02-04T03:34:02.588Z,69.16
2023-02-04T03:36:29.051Z,69.08
2023-02-04T03:38:55.587Z,67.83
2023-02-04T03:41:22.367Z,68.72
2023-02-04T03:43:48.931Z,67.33
2023-02-04T03:46:15.354Z,68.26
2023-02-04T03:48:41.908Z,68.16
2023-02-04T03:51:08.405Z,66.96
2023-02-04T03:53:34.876Z,65.95
2023-02-04T03:56:01.368Z,65.36
2023-02-04T03:58:27.784Z,64.79
2023-02-04T04:00:54.223Z,65.77
2023-02-04T04:03:20.684Z,63.69
2023-02-04T04:05:47.164Z,63.82
2023-02-04T04:08:13.599Z,64.18
2023-02-04T04:10:41.923Z,64.09
2023-02-04T04:13:08.565Z,64.21
2023-02-04T04:15:35.014Z,64.87
2023-02-04T04:18:02.639Z,64.09
2023-02-04T04:20:29.324Z,64.75
2023-02-04T04:22:55.789Z,64.65
2023-02-04T04:25:22.322Z,63.56
2023-02-04T04:27:48.882Z,63.99
2023-02-04T04:30:15.525Z,64.60
2023-02-04T04:32:42.006Z,64.56
2023-02-04T04:35:08.531Z,64.73
2023-02-04T04:37:35.242Z,64.31
2023-02-04T04:40:02.747Z,66.53
2023-02-04T04:42:29.193Z,67.41
2023-02-04T04:44:55.693Z,68.19
2023-02-04T04:47:22.124Z,67.68
2023-02-04T04:49:48.610Z,68.91
2023-02-04T04:52:15.098Z,69.09
2023-02-04T04:54:41.531Z,69.98
2023-02-04T04:57:08.006Z,71.93
2023-02-04T04:59:34.420Z,70.90
2023-02-04T05:02:00.883Z,70.02
2023-02-04T05:04:27.538Z,70.68
2023-02-04T05:06:54.020Z,70.62
2023-02-04T05:09:20.450Z,70.95
2023-02-04T05:11:47.858Z,70.80
2023-02-04T05:14:16.124Z,69.93
2023-02-04T05:16:42.739Z,70.90
2023-02-04T05:19:09.239Z,70.35
2023-02-04T05:21:35.666Z,69.09
2023-02-04T05:24:02.115Z,70.05
2023-02-04T05:26:31.084Z,70.59
2023-02-04T05:29:00.272Z,70.27
2023-02-04T05:31:26.745Z,69.62
2023-02-04T05:33:54.196Z,70.16
2023-02-04T05:36:21.034Z,68.75
2023-02-04T05:38:47.471Z,69.12
2023-02-04T05:41:13.980Z,68.46
2023-02-04T05:43:40.389Z,69.75
2023-02-04T05:46:06.941Z,70.07
2023-02-04T05:48:33.414Z,69.38
2023-02-04T05:50:59.899Z,68.50
2023-02-04T05:53:26.402Z,68.88
2023-02-04T05:55:52.872Z,69.53
2023-02-04T05:58:19.350Z,68.69
2023-02-04T06:00:45.915Z,65.96
2023-02-04T06:03:14.468Z,66.12
2023-02-04T06:05:40.986Z,62.76
2023-02-04T06:08:07.418Z,65.22
2023-02-04T06:10:33.985Z,66.54
2023-02-04T06:13:00.571Z,67.17
2023-02-04T06:15:27.067Z,67.23
2023-02-04T06:17:53.532Z,63.37
2023-02-04T06:20:20.038Z,63.91
2023-02-04T06:22:47.624Z,62.71
2023-02-04T06:25:14.125Z,64.44
2023-02-04T06:27:40.639Z,65.69
2023-02-04T06:30:07.432Z,66.17
2023-02-04T06:32:33.852Z,65.15
2023-02-04T06:35:00.274Z,63.93
2023-02-04T06:37:26.784Z,65.48
2023-02-04T06:39:54.682Z,66.22
2023-02-04T06:42:21.238Z,66.04
2023-02-04T06:44:47.692Z,65.30
2023-02-04T06:47:14.142Z,64.69
2023-02-04T06:49:40.892Z,65.18
2023-02-04T06:52:07.422Z,66.34
2023-02-04T06:54:33.877Z,65.64
2023-02-04T06:57:06.525Z,66.74
2023-02-04T06:59:37.162Z,67.18
2023-02-04T07:02:04.578Z,67.25
2023-02-04T07:04:31.067Z,67.86
2023-02-04T07:06:57.590Z,69.07
2023-02-04T07:09:24.066Z,70.56
2023-02-04T07:11:50.511Z,72.82
2023-02-04T07:14:17.084Z,74.02
2023-02-04T07:16:43.532Z,76.35
2023-02-04T07:19:09.979Z,78.71
2023-02-04T07:21:36.429Z,81.08
2023-02-04T07:24:02.907Z,82.23
2023-02-04T07:26:29.334Z,84.69
2023-02-04T07:28:55.844Z,86.46
2023-02-04T07:31:22.447Z,87.20
2023-02-04T07:33:48.901Z,89.30
2023-02-04T07:36:15.720Z,86.75
2023-02-04T07:38:42.210Z,88.68
2023-02-04T07:41:08.657Z,89.51
2023-02-04T07:43:35.239Z,89.03
2023-02-04T07:46:01.730Z,90.91
2023-02-04T07:48:28.243Z,91.50
2023-02-04T07:50:54.682Z,88.80
2023-02-04T07:53:21.175Z,91.02
2023-02-04T07:55:47.595Z,85.91
2023-02-04T07:58:14.037Z,83.35
2023-02-04T08:00:40.559Z,84.49
2023-02-04T08:03:07.015Z,80.81
2023-02-04T08:05:33.578Z,80.51
2023-02-04T08:08:01.968Z,80.89
2023-02-04T08:10:28.405Z,80.95
2023-02-04T08:12:54.850Z,81.77
2023-02-04T08:15:21.336Z,80.35
2023-02-04T08:17:47.784Z,79.27
2023-02-04T08:20:14.375Z,80.98
2023-02-04T08:22:40.804Z,81.11
2023-02-04T08:25:07.563Z,81.47
2023-02-04T08:27:33.953Z,82.44
2023-02-04T08:30:00.385Z,80.87
2023-02-04T08:32:28.254Z,79.04
2023-02-04T08:34:54.880Z,78.03
2023-02-04T08:37:21.347Z,76.32
2023-02-04T08:39:48.987Z,72.08
2023-02-04T08:42:16.066Z,68.44
2023-02-04T08:44:42.585Z,62.87
2023-02-04T08:47:09.907Z,64.71
2023-02-04T08:49:36.833Z,59.63
2023-02-04T08:52:04.457Z,57.76
2023-02-04T08:54:30.966Z,58.26
2023-02-04T08:56:57.406Z,53.40
2023-02-04T08:59:24.263Z,48.94
2023-02-04T09:01:52.484Z,49.18
2023-02-04T09:04:19.513Z,48.10
2023-02-04T09:06:46.128Z,45.02
2023-02-04T09:09:12.791Z,44.23
2023-02-04T09:11:39.219Z,45.60
2023-02-04T09:14:05.656Z,46.86
2023-02-04T09:16:32.116Z,46.79
2023-02-04T09:18:58.981Z,46.22
2023-02-04T09:21:25.933Z,47.50
2023-02-04T09:23:52.363Z,49.64
2023-02-04T09:26:18.785Z,48.02
2023-02-04T09:28:45.342Z,47.03
2023-02-04T09:31:12.030Z,47.37
2023-02-04T09:33:38.553Z,47.14
2023-02-04T09:36:05.325Z,46.82
2023-02-04T09:38:31.765Z,46.67
2023-02-04T09:41:00.192Z,45.97
2023-02-04T09:43:29.420Z,45.84
2023-02-04T09:45:56.600Z,47.49
2023-02-04T09:48:23.816Z,45.26
2023-02-04T09:50:51.274Z,44.19
2023-02-04T09:53:21.440Z,43.70
2023-02-04T09:55:48.926Z,43.09
2023-02-04T09:58:19.453Z,42.00
2023-02-04T10:00:46.849Z,43.88
2023-02-04T10:03:18.299Z,42.90
2023-02-04T10:05:46.159Z,41.84
2023-02-04T10:08:17.264Z,40.79
2023-02-04T10:10:45.431Z,43.06
2023-02-04T10:13:20.412Z,41.72
2023-02-04T10:15:48.162Z,43.06
2023-02-04T10:18:26.631Z,43.98
2023-02-04T10:20:57.541Z,43.47
2023-02-04T10:23:24.288Z,44.61
2023-02-04T10:25:50.712Z,41.83
2023-02-04T10:28:18.464Z,44.18
2023-02-04T10:30:47.261Z,47.13
2023-02-04T10:33:24.801Z,45.62
2023-02-04T10:35:52.649Z,45.00
2023-02-04T10:38:19.644Z,47.01
2023-02-04T10:40:47.370Z,45.71
2023-02-04T10:43:18.469Z,44.54
2023-02-04T10:45:46.937Z,44.53
2023-02-04T10:48:15.525Z,44.12
2023-02-04T10:50:42.018Z,44.85
2023-02-04T10:53:28.320Z,43.38
2023-02-04T10:55:54.918Z,43.90
2023-02-04T10:58:26.758Z,44.09
2023-02-04T11:00:53.323Z,43.43
2023-02-04T11:03:22.914Z,42.89
2023-02-04T11:05:49.638Z,42.37
2023-02-04T11:08:26.745Z,40.27
2023-02-04T11:10:56.596Z,39.27
2023-02-04T11:13:43.410Z,39.63
2023-02-04T11:16:19.055Z,38.66
2023-02-04T11:18:50.138Z,38.10
2023-02-04T11:21:28.816Z,37.50
2023-02-04T11:24:16.537Z,36.04
2023-02-04T11:26:43.863Z,35.78
2023-02-04T11:29:25.184Z,32.29
2023-02-04T11:31:51.815Z,32.63
2023-02-04T11:34:21.659Z,32.05
2023-02-04T11:36:51.233Z,31.46
2023-02-04T11:39:18.063Z,30.46
2023-02-04T11:41:47.736Z,30.55
2023-02-04T11:44:15.375Z,31.20
2023-02-04T11:46:42.271Z,29.48
2023-02-04T11:49:27.271Z,28.64
2023-02-04T11:52:09.684Z,29.14
2023-02-04T11:54:36.447Z,29.44
2023-02-04T11:57:03.288Z,28.60
2023-02-04T11:59:29.796Z,29.26
2023-02-04T12:02:06.179Z,29.66
2023-02-04T12:04:32.762Z,29.76
2023-02-04T12:07:00.741Z,29.00
2023-02-04T12:09:29.905Z,26.74
2023-02-04T12:12:00.830Z,28.33
2023-02-04T12:14:37.047Z,28.88
2023-02-04T12:17:21.341Z,28.92
2023-02-04T12:19:47.825Z,28.71
2023-02-04T12:22:15.685Z,29.79
2023-02-04T12:24:42.905Z,27.40
2023-02-04T12:27:09.386Z,29.00
2023-02-04T12:29:35.866Z,28.92
2023-02-04T12:32:02.357Z,29.41
2023-02-04T12:34:28.940Z,30.16
2023-02-04T12:36:55.384Z,29.55
2023-02-04T12:39:21.854Z,31.24
2023-02-04T12:41:48.295Z,30.24
2023-02-04T12:44:15.807Z,31.50
2023-02-04T12:46:42.235Z,30.39
2023-02-04T12:49:09.698Z,31.78
2023-02-04T12:51:36.258Z,31.98
2023-02-04T12:54:02.740Z,29.67
2023-02-04T12:56:29.230Z,30.91
2023-02-04T12:58:55.728Z,30.21
2023-02-04T13:01:22.189Z,30.70
2023-02-04T13:03:48.648Z,31.00
2023-02-04T13:06:15.097Z,30.58
2023-02-04T13:08:41.547Z,30.78
2023-02-04T13:11:08.040Z,31.18
2023-02-04T13:13:34.506Z,32.29
2023-02-04T13:16:01.143Z,32.67
2023-02-04T13:18:27.594Z,33.31
2023-02-04T13:20:54.097Z,32.53
2023-02-04T13:23:20.589Z,32.59
2023-02-04T13:25:47.124Z,32.77
2023-02-04T13:28:14.132Z,34.41
2023-02-04T13:30:40.705Z,35.42
2023-02-04T13:33:07.244Z,35.82
2023-02-04T13:35:33.894Z,35.91
2023-02-04T13:38:00.615Z,36.57
2023-02-04T13:40:27.112Z,36.07
2023-02-04T13:42:53.597Z,36.34
2023-02-04T13:45:20.236Z,36.13
2023-02-04T13:47:48.001Z,37.72
2023-02-04T13:50:15.971Z,37.55
2023-02-04T13:52:42.422Z,37.41
2023-02-04T13:55:08.930Z,37.36
2023-02-04T13:57:37.318Z,38.47
2023-02-04T14:00:04.954Z,37.86
2023-02-04T14:02:38.836Z,38.00
2023-02-04T14:05:05.576Z,39.90
2023-02-04T14:07:33.423Z,39.79
2023-02-04T14:09:59.895Z,38.63
2023-02-04T14:12:26.300Z,37.62
2023-02-04T14:14:53.113Z,38.03
2023-02-04T14:17:19.655Z,36.71
2023-02-04T14:19:46.196Z,37.36
2023-02-04T14:22:13.224Z,38.06
2023-02-04T14:24:42.430Z,38.50
2023-02-04T14:27:09.648Z,38.71
2023-02-04T14:29:36.162Z,38.84
2023-02-04T14:32:02.638Z,38.45
2023-02-04T14:34:29.084Z,38.76
2023-02-04T14:36:55.559Z,38.79
2023-02-04T14:39:21.998Z,39.32
2023-02-04T14:41:48.470Z,39.75
2023-02-04T14:44:20.525Z,39.44
2023-02-04T14:46:50.730Z,40.77
2023-02-04T14:49:17.422Z,40.84
2023-02-04T14:51:44.373Z,41.74
2023-02-04T14:54:11.077Z,40.31
2023-02-04T14:56:37.542Z,40.38
2023-02-04T14:59:03.976Z,40.54
2023-02-04T15:01:31.031Z,41.28
2023-02-04T15:03:58.185Z,41.88
2023-02-04T15:06:24.604Z,40.92
2023-02-04T15:08:51.072Z,40.94
2023-02-04T15:11:17.525Z,42.20
2023-02-04T15:13:43.953Z,42.25
2023-02-04T15:16:12.298Z,42.62
2023-02-04T15:18:38.877Z,41.62
2023-02-04T15:21:05.448Z,41.75
2023-02-04T15:23:31.899Z,42.46
2023-02-04T15:25:58.404Z,41.87
2023-02-04T15:28:24.944Z,42.48
2023-02-04T15:30:51.500Z,42.81
2023-02-04T15:33:18.044Z,42.23
2023-02-04T15:35:44.467Z,42.70
2023-02-04T15:38:11.176Z,43.19
2023-02-04T15:40:37.610Z,41.23
2023-02-04T15:43:04.080Z,42.48
2023-02-04T15:45:30.570Z,41.68
2023-02-04T15:47:56.993Z,41.47
2023-02-04T15:50:23.421Z,42.71
2023-02-04T15:52:49.908Z,42.27
2023-02-04T15:55:16.455Z,42.03
2023-02-04T15:57:42.933Z,42.28
2023-02-04T16:00:09.701Z,43.53
2023-02-04T16:02:36.280Z,42.69
2023-02-04T16:05:02.851Z,41.95
2023-02-04T16:07:29.286Z,42.04
2023-02-04T16:09:55.728Z,42.56
2023-02-04T16:12:22.143Z,42.33
2023-02-04T16:14:48.617Z,40.85
2023-02-04T16:17:15.037Z,40.80
2023-02-04T16:19:41.568Z,40.85
2023-02-04T16:22:08.095Z,40.76
2023-02-04T16:24:35.344Z,41.18
2023-02-04T16:27:01.758Z,40.39
2023-02-04T16:29:28.289Z,39.84
2023-02-04T16:31:55.536Z,39.15
2023-02-04T16:34:22.040Z,39.76
2023-02-04T16:36:48.514Z,39.42
2023-02-04T16:39:15.262Z,39.82
2023-02-04T16:41:41.867Z,38.79
2023-02-04T16:44:08.317Z,38.94
2023-02-04T16:46:34.796Z,39.09
2023-02-04T16:49:01.395Z,39.83
2023-02-04T16:51:28.112Z,39.24
2023-02-04T16:53:54.568Z,39.88
2023-02-04T16:56:21.041Z,39.51
2023-02-04T16:58:48.338Z,39.39
2023-02-04T17:01:17.155Z,40.01
2023-02-04T17:03:44.013Z,39.76
2023-02-04T17:06:10.492Z,40.10
2023-02-04T17:08:36.939Z,40.10
2023-02-04T17:11:22.083Z,40.23
2023-02-04T17:13:48.555Z,40.85
2023-02-04T17:16:15.169Z,40.47
2023-02-04T17:18:41.655Z,40.93
2023-02-04T17:21:08.069Z,41.26
2023-02-04T17:23:35.408Z,40.70
2023-02-04T17:26:01.960Z,41.11
2023-02-04T17:28:28.505Z,41.42
2023-02-04T17:30:55.029Z,41.55
2023-02-04T17:33:21.608Z,41.53
2023-02-04T17:35:48.627Z,41.65
2023-02-04T17:38:15.176Z,41.97
2023-02-04T17:40:42.577Z,42.46
2023-02-04T17:43:09.202Z,42.19
2023-02-04T17:45:36.112Z,42.58
2023-02-04T17:48:02.771Z,42.06
2023-02-04T17:50:29.232Z,42.56
2023-02-04T17:52:55.762Z,43.04
2023-02-04T17:55:28.810Z,42.12
2023-02-04T17:57:55.794Z,42.91
2023-02-04T18:00:23.445Z,43.38
2023-02-04T18:02:50.807Z,42.76
2023-02-04T18:05:24.858Z,42.51
2023-02-04T18:08:14.636Z,42.85
2023-02-04T18:10:59.349Z,43.02
2023-02-04T18:13:32.959Z,43.47
2023-02-04T18:16:10.133Z,43.41
2023-02-04T18:18:37.814Z,43.37
2023-02-04T18:21:21.804Z,43.74
2023-02-04T18:23:52.938Z,43.52
2023-02-04T18:26:22.912Z,43.65
2023-02-04T18:28:49.851Z,43.68
2023-02-04T18:31:32.285Z,44.13
2023-02-04T18:33:58.968Z,43.87
2023-02-04T18:36:27.410Z,43.81
2023-02-04T18:38:54.865Z,43.73
2023-02-04T18:41:31.361Z,43.99
2023-02-04T18:44:02.787Z,43.46
2023-02-04T18:46:31.775Z,43.46
2023-02-04T18:49:19.366Z,43.01
2023-02-04T18:51:46.161Z,43.51
2023-02-04T18:54:23.395Z,43.28
2023-02-04T18:56:49.852Z,43.30
2023-02-04T18:59:17.339Z,43.18
2023-02-04T19:01:45.746Z,43.35
2023-02-04T19:04:13.881Z,43.21
2023-02-04T19:06:42.596Z,43.41
2023-02-04T19:09:12.202Z,43.44
2023-02-04T19:11:46.490Z,42.91
2023-02-04T19:14:31.148Z,43.25
2023-02-04T19:17:25.170Z,43.42
2023-02-04T19:19:55.511Z,43.07
2023-02-04T19:22:40.595Z,43.24
2023-02-04T19:25:22.442Z,43.06
2023-02-04T19:27:54.083Z,42.79
2023-02-04T19:30:26.755Z,42.61
2023-02-04T19:32:57.011Z,42.52
2023-02-04T19:35:24.974Z,42.52
2023-02-04T19:37:54.561Z,42.98
2023-02-04T19:40:47.441Z,43.23
2023-02-04T19:43:21.971Z,42.65
2023-02-04T19:45:50.927Z,42.04
2023-02-04T19:48:22.628Z,42.98
2023-02-04T19:50:51.447Z,43.02
2023-02-04T19:53:22.371Z,42.37
2023-02-04T19:55:52.485Z,42.20
2023-02-04T19:58:18.960Z,42.37
2023-02-04T20:01:01.927Z,42.56
2023-02-04T20:03:41.787Z,42.42
2023-02-04T20:06:23.355Z,42.13
2023-02-04T20:08:54.173Z,42.52
2023-02-04T20:11:20.593Z,42.79
2023-02-04T20:13:47.031Z,42.71
2023-02-04T20:16:32.223Z,42.58
2023-02-04T20:19:00.929Z,42.71
2023-02-04T20:21:27.763Z,43.04
2023-02-04T20:23:54.617Z,42.40
2023-02-04T20:26:21.078Z,42.91
2023-02-04T20:28:48.061Z,42.98
2023-02-04T20:31:22.328Z,42.52
2023-02-04T20:33:50.513Z,42.39
2023-02-04T20:36:19.939Z,42.36
2023-02-04T20:38:46.444Z,42.05
2023-02-04T20:41:16.036Z,42.96
2023-02-04T20:43:42.916Z,42.23
2023-02-04T20:46:14.905Z,42.13
2023-02-04T20:48:42.999Z,42.51
2023-02-04T20:51:22.960Z,41.76
2023-02-04T20:53:50.721Z,42.81
2023-02-04T20:56:32.106Z,43.01
2023-02-04T20:59:17.278Z,42.48
2023-02-04T21:01:48.860Z,42.43
2023-02-04T21:04:15.344Z,42.72
2023-02-04T21:06:41.769Z,41.93
2023-02-04T21:09:10.747Z,42.65
2023-02-04T21:11:37.262Z,41.49
2023-02-04T21:14:03.674Z,41.73
2023-02-04T21:16:30.114Z,42.33
2023-02-04T21:18:56.563Z,42.90
2023-02-04T21:21:24.442Z,42.95
2023-02-04T21:23:51.116Z,43.42
2023-02-04T21:26:17.540Z,43.99
2023-02-04T21:28:44.180Z,44.20
2023-02-04T21:31:11.611Z,44.95
2023-02-04T21:33:38.238Z,45.85
2023-02-04T21:36:04.839Z,45.56
2023-02-04T21:38:31.281Z,44.94
2023-02-04T21:40:57.756Z,44.13
2023-02-04T21:43:24.189Z,44.69
2023-02-04T21:45:50.716Z,45.20
2023-02-04T21:48:17.259Z,44.59
2023-02-04T21:50:43.889Z,44.76
2023-02-04T21:53:10.529Z,46.83
2023-02-04T21:55:37.143Z,46.61
2023-02-04T21:58:04.171Z,45.25
2023-02-04T22:00:30.686Z,46.73
2023-02-04T22:02:57.294Z,46.12
2023-02-04T22:05:24.391Z,46.45
2023-02-04T22:07:51.175Z,47.13
2023-02-04T22:10:19.261Z,46.78
2023-02-04T22:12:45.710Z,46.45
2023-02-04T22:15:12.171Z,46.86
2023-02-04T22:17:38.667Z,46.85
2023-02-04T22:20:05.351Z,46.01
2023-02-04T22:22:31.825Z,46.79
2023-02-04T22:24:58.319Z,48.24
2023-02-04T22:27:24.884Z,48.93
2023-02-04T22:29:51.340Z,49.81
2023-02-04T22:32:17.776Z,49.24
2023-02-04T22:34:44.205Z,50.17
2023-02-04T22:37:10.677Z,51.18
2023-02-04T22:39:37.168Z,51.13
2023-02-04T22:42:03.707Z,51.60
2023-02-04T22:44:30.177Z,52.05
2023-02-04T22:46:56.732Z,52.54
2023-02-04T22:49:23.327Z,51.72
2023-02-04T22:51:49.810Z,53.18
2023-02-04T22:54:16.560Z,52.92
2023-02-04T22:56:43.004Z,52.31
2023-02-04T22:59:09.494Z,52.53
2023-02-04T23:01:35.988Z,53.21
2023-02-04T23:04:02.621Z,53.32
2023-02-04T23:06:29.124Z,53.29
2023-02-04T23:08:55.755Z,53.67
2023-02-04T23:11:23.212Z,54.20
2023-02-04T23:13:50.286Z,54.42
2023-02-04T23:16:17.279Z,55.75
2023-02-04T23:18:43.976Z,55.33
2023-02-04T23:21:10.593Z,55.47
2023-02-04T23:23:37.438Z,55.43
2023-02-04T23:26:04.036Z,55.83
2023-02-04T23:28:31.015Z,55.69
2023-02-04T23:30:57.700Z,55.52
2023-02-04T23:33:24.288Z,55.26
2023-02-04T23:35:50.851Z,56.04
2023-02-04T23:38:17.285Z,53.46
2023-02-04T23:40:43.767Z,54.27
2023-02-04T23:43:10.963Z,54.70
2023-02-04T23:45:37.747Z,53.84
2023-02-04T23:48:04.437Z,51.98
2023-02-04T23:50:30.904Z,51.48
2023-02-04T23:52:57.338Z,50.17
2023-02-04T23:55:24.155Z,49.55
2023-02-04T23:57:50.705Z,49.37
